createdAt,value
2018-12-04T00:00:36.966Z,99.90
2018-12-04T00:03:06.652Z,99.90
2018-12-04T00:05:35.938Z,99.90
2018-12-04T00:08:05.024Z,99.90
2018-12-04T00:10:34.268Z,99.90
2018-12-04T00:13:03.337Z,99.90
2018-12-04T00:15:32.412Z,99.90
2018-12-04T00:18:01.508Z,99.90
2018-12-04T00:20:30.720Z,99.90
2018-12-04T00:22:59.795Z,99.90
2018-12-04T00:25:28.888Z,99.90
2018-12-04T00:27:57.987Z,99.90
2018-12-04T00:30:27.224Z,99.90
2018-12-04T00:32:56.302Z,99.90
2018-12-04T00:35:25.399Z,99.90
2018-12-04T00:37:54.476Z,99.90
2018-12-04T00:40:23.691Z,99.90
2018-12-04T00:42:52.769Z,99.90
2018-12-04T00:45:21.865Z,99.90
2018-12-04T00:47:50.935Z,99.90
2018-12-04T00:50:20.129Z,99.90
2018-12-04T00:52:49.203Z,99.90
2018-12-04T00:55:18.310Z,99.90
2018-12-04T00:57:47.387Z,99.90
2018-12-04T01:00:16.525Z,99.90
2018-12-04T01:02:45.619Z,99.90
2018-12-04T01:05:14.719Z,99.90
2018-12-04T01:07:43.812Z,99.90
2018-12-04T01:10:13.235Z,99.90
2018-12-04T01:12:42.311Z,99.90
2018-12-04T01:15:11.416Z,99.90
2018-12-04T01:17:40.507Z,99.90
2018-12-04T01:20:09.757Z,99.90
2018-12-04T01:22:38.876Z,99.90
2018-12-04T01:25:07.996Z,99.90
2018-12-04T01:27:37.083Z,99.90
2018-12-04T01:30:06.427Z,99.90
2018-12-04T01:32:35.556Z,99.90
2018-12-04T01:35:05.640Z,99.90
2018-12-04T01:37:34.710Z,99.90
2018-12-04T01:40:04.420Z,99.90
2018-12-04T01:42:33.508Z,99.90
2018-12-04T01:45:02.644Z,99.90
2018-12-04T01:47:31.709Z,99.90
2018-12-04T01:50:00.795Z,99.90
2018-12-04T01:52:29.871Z,99.90
2018-12-04T01:54:58.988Z,99.90
2018-12-04T01:57:28.071Z,99.90
2018-12-04T01:59:57.355Z,99.90
2018-12-04T02:02:26.432Z,99.90
2018-12-04T02:04:55.517Z,99.90
2018-12-04T02:07:24.657Z,99.90
2018-12-04T02:09:54.037Z,99.90
2018-12-04T02:12:23.176Z,99.90
2018-12-04T02:14:52.285Z,99.90
2018-12-04T02:17:21.432Z,99.90
2018-12-04T02:19:50.681Z,99.90
2018-12-04T02:22:19.813Z,99.90
2018-12-04T02:24:48.945Z,99.90
2018-12-04T02:27:18.693Z,99.90
2018-12-04T02:29:48.060Z,99.90
2018-12-04T02:32:17.222Z,99.90
2018-12-04T02:34:46.422Z,99.90
2018-12-04T02:37:15.553Z,99.90
2018-12-04T02:39:44.772Z,99.90
2018-12-04T02:42:14.006Z,99.90
2018-12-04T02:44:43.138Z,99.90
2018-12-04T02:47:12.518Z,99.90
2018-12-04T02:49:41.701Z,99.90
2018-12-04T02:52:10.880Z,99.90
2018-12-04T02:54:39.960Z,99.90
2018-12-04T02:57:09.053Z,99.90
2018-12-04T02:59:38.193Z,99.90
2018-12-04T03:02:07.332Z,99.90
2018-12-04T03:04:36.407Z,99.90
2018-12-04T03:07:05.539Z,99.90
2018-12-04T03:09:34.653Z,99.90
2018-12-04T03:12:04.230Z,99.90
2018-12-04T03:14:33.308Z,99.90
2018-12-04T03:17:02.412Z,99.90
2018-12-04T03:19:31.627Z,99.90
2018-12-04T03:22:00.727Z,99.90
2018-12-04T03:24:29.802Z,99.90
2018-12-04T03:26:58.908Z,99.90
2018-12-04T03:29:28.081Z,99.90
2018-12-04T03:31:57.274Z,99.90
2018-12-04T03:34:26.376Z,99.90
2018-12-04T03:36:55.475Z,99.90
2018-12-04T03:39:24.668Z,99.90
2018-12-04T03:41:53.789Z,99.90
2018-12-04T03:44:59.409Z,99.90
2018-12-04T03:47:27.586Z,99.90
2018-12-04T03:49:56.064Z,99.90
2018-12-04T03:52:24.244Z,99.90
2018-12-04T03:54:52.393Z,99.90
2018-12-04T03:57:20.552Z,99.90
2018-12-04T03:59:48.753Z,99.90
2018-12-04T04:02:16.926Z,99.90
2018-12-04T04:04:45.092Z,99.90
2018-12-04T04:07:13.247Z,99.90
2018-12-04T04:09:41.499Z,99.90
2018-12-04T04:12:09.675Z,99.90
2018-12-04T04:14:38.187Z,99.90
2018-12-04T04:17:06.428Z,99.90
2018-12-04T04:19:34.655Z,99.90
2018-12-04T04:22:02.915Z,99.90
2018-12-04T04:24:34.182Z,99.90
2018-12-04T04:27:02.755Z,99.90
2018-12-04T04:29:30.929Z,99.90
2018-12-04T04:31:59.103Z,99.90
2018-12-04T04:34:27.273Z,99.90
2018-12-04T04:36:55.451Z,99.90
2018-12-04T04:39:23.643Z,99.90
2018-12-04T04:41:51.812Z,99.90
2018-12-04T04:44:19.969Z,99.90
2018-12-04T04:46:48.133Z,99.90
2018-12-04T04:49:16.344Z,99.90
2018-12-04T04:51:44.519Z,99.90
2018-12-04T04:54:12.677Z,99.90
2018-12-04T04:56:40.840Z,99.90
2018-12-04T04:59:09.129Z,99.90
2018-12-04T05:01:37.811Z,99.90
2018-12-04T05:04:06.050Z,99.90
2018-12-04T05:06:34.204Z,99.90
2018-12-04T05:09:02.541Z,99.90
2018-12-04T05:11:30.687Z,99.90
2018-12-04T05:13:58.866Z,99.90
2018-12-04T05:16:27.012Z,99.90
2018-12-04T05:18:55.265Z,99.90
2018-12-04T05:21:23.415Z,99.90
2018-12-04T05:23:51.583Z,99.90
2018-12-04T05:26:19.733Z,99.90
2018-12-04T05:28:48.004Z,99.90
2018-12-04T05:31:16.153Z,99.90
2018-12-04T05:33:44.320Z,99.90
2018-12-04T05:36:12.460Z,99.90
2018-12-04T05:38:40.662Z,99.90
2018-12-04T05:41:08.830Z,99.90
2018-12-04T05:43:36.980Z,99.90
2018-12-04T05:46:05.128Z,99.90
2018-12-04T05:48:33.456Z,99.90
2018-12-04T05:51:01.600Z,99.90
2018-12-04T05:53:30.916Z,99.90
2018-12-04T05:55:59.060Z,99.90
2018-12-04T05:58:27.276Z,99.90
2018-12-04T06:00:55.416Z,99.90
2018-12-04T06:03:23.587Z,99.90
2018-12-04T06:05:51.736Z,99.90
2018-12-04T06:08:20.046Z,99.90
2018-12-04T06:10:48.804Z,99.90
2018-12-04T06:13:17.059Z,99.90
2018-12-04T06:15:45.204Z,99.90
2018-12-04T06:18:13.368Z,99.90
2018-12-04T06:20:41.509Z,99.90
2018-12-04T06:23:09.671Z,99.90
2018-12-04T06:25:37.811Z,99.90
2018-12-04T06:28:05.972Z,99.90
2018-12-04T06:30:34.117Z,99.90
2018-12-04T06:33:02.291Z,99.90
2018-12-04T06:35:30.434Z,99.90
2018-12-04T06:37:58.680Z,99.90
2018-12-04T06:40:26.816Z,99.90
2018-12-04T06:42:54.985Z,99.90
2018-12-04T06:45:23.188Z,99.90
2018-12-04T06:47:51.363Z,99.90
2018-12-04T06:50:19.510Z,99.90
2018-12-04T06:52:47.667Z,99.90
2018-12-04T06:55:15.820Z,99.90
2018-12-04T06:57:46.021Z,99.90
2018-12-04T07:00:14.164Z,99.90
2018-12-04T07:02:42.359Z,99.90
2018-12-04T07:05:10.491Z,99.90
2018-12-04T07:07:38.700Z,99.90
2018-12-04T07:10:06.932Z,99.90
2018-12-04T07:12:35.072Z,99.90
2018-12-04T07:15:03.411Z,99.90
2018-12-04T07:17:31.619Z,99.90
2018-12-04T07:19:59.808Z,99.90
2018-12-04T07:22:27.963Z,99.90
2018-12-04T07:24:56.131Z,99.90
2018-12-04T07:27:24.281Z,99.90
2018-12-04T07:29:52.447Z,99.90
2018-12-04T07:32:20.953Z,99.90
2018-12-04T07:34:49.109Z,99.90
2018-12-04T07:37:17.468Z,99.90
2018-12-04T07:39:45.628Z,99.90
2018-12-04T07:42:13.775Z,99.90
2018-12-04T07:44:41.931Z,99.90
2018-12-04T07:47:10.191Z,99.90
2018-12-04T07:49:38.356Z,99.90
2018-12-04T07:52:06.500Z,99.90
2018-12-04T07:54:34.664Z,99.90
2018-12-04T07:57:02.825Z,99.90
2018-12-04T07:59:30.994Z,99.90
2018-12-04T08:01:59.123Z,99.90
2018-12-04T08:04:27.283Z,99.90
2018-12-04T08:06:55.544Z,99.90
2018-12-04T08:09:23.716Z,99.90
2018-12-04T08:11:51.932Z,99.90
2018-12-04T08:14:20.107Z,99.90
2018-12-04T08:16:48.372Z,99.90
2018-12-04T08:19:16.542Z,99.90
2018-12-04T08:21:44.693Z,99.90
2018-12-04T08:24:12.864Z,99.90
2018-12-04T08:26:41.007Z,99.90
2018-12-04T08:29:09.176Z,99.90
2018-12-04T08:31:37.320Z,99.90
2018-12-04T08:34:05.488Z,99.90
2018-12-04T08:36:33.691Z,99.90
2018-12-04T08:39:01.947Z,99.90
2018-12-04T08:41:30.082Z,99.90
2018-12-04T08:43:58.252Z,99.90
2018-12-04T08:46:26.475Z,99.90
2018-12-04T08:48:54.651Z,99.90
2018-12-04T08:51:22.803Z,99.90
2018-12-04T08:53:50.974Z,99.90
2018-12-04T08:56:19.375Z,99.90
2018-12-04T08:58:47.540Z,99.90
2018-12-04T09:01:15.690Z,99.90
2018-12-04T09:03:43.860Z,99.90
2018-12-04T09:06:12.175Z,99.90
2018-12-04T09:08:40.402Z,99.90
2018-12-04T09:11:08.720Z,99.90
2018-12-04T09:13:36.891Z,99.90
2018-12-04T09:16:05.184Z,99.90
2018-12-04T09:18:33.400Z,99.90
2018-12-04T09:21:01.634Z,99.90
2018-12-04T09:23:29.920Z,99.90
2018-12-04T09:25:58.222Z,99.90
2018-12-04T09:28:26.378Z,99.90
2018-12-04T09:30:54.627Z,99.90
2018-12-04T09:33:22.772Z,99.90
2018-12-04T09:35:51.114Z,99.90
2018-12-04T09:38:19.259Z,99.90
2018-12-04T09:40:47.582Z,99.90
2018-12-04T09:43:15.727Z,99.90
2018-12-04T09:45:43.900Z,99.90
2018-12-04T09:48:12.044Z,99.90
2018-12-04T09:50:40.221Z,99.90
2018-12-04T09:53:08.364Z,99.90
2018-12-04T09:55:36.534Z,99.90
2018-12-04T09:58:04.677Z,99.90
2018-12-04T10:00:32.844Z,99.90
2018-12-04T10:03:00.990Z,99.90
2018-12-04T10:05:29.155Z,99.90
2018-12-04T10:07:57.303Z,99.90
2018-12-04T10:10:25.476Z,99.90
2018-12-04T10:12:53.661Z,99.90
2018-12-04T10:15:21.998Z,99.90
2018-12-04T10:17:50.148Z,99.90
2018-12-04T10:20:18.308Z,99.90
2018-12-04T10:22:46.460Z,99.90
2018-12-04T10:25:14.696Z,99.90
2018-12-04T10:27:42.843Z,99.90
2018-12-04T10:30:11.149Z,99.90
2018-12-04T10:32:39.291Z,99.90
2018-12-04T10:35:07.597Z,99.90
2018-12-04T10:37:35.744Z,99.90
2018-12-04T10:40:05.568Z,99.90
2018-12-04T10:42:33.746Z,99.90
2018-12-04T10:45:01.930Z,99.90
2018-12-04T10:47:30.081Z,99.90
2018-12-04T10:49:58.336Z,99.90
2018-12-04T10:52:26.485Z,99.90
2018-12-04T10:54:54.720Z,99.90
2018-12-04T10:57:22.872Z,99.90
2018-12-04T10:59:51.044Z,99.90
2018-12-04T11:02:23.252Z,99.90
2018-12-04T11:04:51.536Z,99.90
2018-12-04T11:07:19.707Z,99.90
2018-12-04T11:12:42.924Z,99.90
2018-12-04T11:15:11.252Z,99.90
2018-12-04T11:17:39.401Z,99.90
2018-12-04T11:20:09.516Z,99.90
2018-12-04T11:22:37.658Z,99.90
2018-12-04T11:25:06.975Z,99.90
2018-12-04T11:27:35.124Z,99.90
2018-12-04T11:30:04.948Z,99.90
2018-12-04T11:32:33.095Z,99.90
2018-12-04T11:35:01.368Z,99.90
2018-12-04T11:37:29.523Z,99.90
2018-12-04T11:39:57.687Z,99.90
2018-12-04T11:42:25.837Z,99.90
2018-12-04T11:44:54.027Z,99.90
2018-12-04T11:47:22.203Z,99.90
2018-12-04T11:49:50.347Z,99.90
2018-12-04T11:52:18.529Z,99.90
2018-12-04T11:54:46.825Z,99.90
2018-12-04T11:57:15.000Z,99.90
2018-12-04T11:59:43.150Z,99.90
2018-12-04T12:02:11.482Z,99.90
2018-12-04T12:04:39.632Z,99.90
2018-12-04T12:07:07.812Z,99.90
2018-12-04T12:09:35.960Z,99.90
2018-12-04T12:12:04.131Z,99.90
2018-12-04T12:14:32.351Z,99.90
2018-12-04T12:17:00.601Z,99.90
2018-12-04T12:19:28.745Z,99.90
2018-12-04T12:21:56.936Z,99.10
2018-12-04T12:24:25.123Z,82.10
2018-12-04T12:26:53.288Z,78.90
2018-12-04T12:29:21.440Z,65.10
2018-12-04T12:31:49.604Z,76.00
2018-12-04T12:34:23.382Z,78.70
2018-12-04T12:36:47.995Z,83.30
2018-12-04T12:39:16.137Z,93.70
2018-12-04T12:41:44.304Z,82.90
2018-12-04T12:44:12.572Z,74.10
2018-12-04T12:46:40.744Z,92.20
2018-12-04T12:49:08.897Z,99.00
2018-12-04T12:51:37.079Z,99.90
2018-12-04T12:54:05.360Z,99.90
2018-12-04T12:56:33.538Z,99.90
2018-12-04T12:59:01.696Z,99.90
2018-12-04T13:01:29.874Z,99.90
2018-12-04T13:03:58.073Z,99.90
2018-12-04T13:06:26.250Z,99.90
2018-12-04T13:08:54.484Z,99.90
2018-12-04T13:11:22.665Z,99.90
2018-12-04T13:13:50.935Z,99.90
2018-12-04T13:16:19.111Z,99.90
2018-12-04T13:18:47.270Z,99.90
2018-12-04T13:21:15.435Z,99.90
2018-12-04T13:23:43.769Z,99.90
2018-12-04T13:26:12.045Z,99.90
2018-12-04T13:28:40.191Z,99.90
2018-12-04T13:31:08.368Z,99.90
2018-12-04T13:33:36.567Z,99.90
2018-12-04T13:36:05.415Z,99.90
2018-12-04T13:38:33.560Z,99.90
2018-12-04T13:41:01.736Z,99.90
2018-12-04T13:43:29.974Z,99.90
2018-12-04T13:45:58.348Z,99.90
2018-12-04T13:48:26.556Z,99.90
2018-12-04T13:50:54.728Z,99.90
2018-12-04T13:53:22.872Z,99.90
2018-12-04T13:55:51.027Z,99.90
2018-12-04T13:58:19.207Z,99.90
2018-12-04T14:00:47.346Z,99.90
2018-12-04T14:03:15.525Z,99.90
2018-12-04T14:05:43.807Z,99.90
2018-12-04T14:08:12.055Z,99.90
2018-12-04T14:10:40.211Z,99.90
2018-12-04T14:13:08.607Z,99.90
2018-12-04T14:15:36.747Z,99.90
2018-12-04T14:18:04.913Z,99.90
2018-12-04T14:20:33.240Z,99.90
2018-12-04T14:23:01.587Z,99.90
2018-12-04T14:25:29.747Z,99.90
2018-12-04T14:27:57.900Z,99.90
2018-12-04T14:30:26.057Z,99.90
2018-12-04T14:32:54.310Z,99.90
2018-12-04T14:35:22.436Z,99.90
2018-12-04T14:37:50.600Z,99.90
2018-12-04T14:40:18.772Z,99.90
2018-12-04T14:42:47.085Z,99.90
2018-12-04T14:45:15.235Z,99.90
2018-12-04T14:47:43.413Z,99.90
2018-12-04T14:50:11.673Z,99.90
2018-12-04T14:52:40.005Z,99.90
2018-12-04T14:55:08.204Z,99.90
2018-12-04T14:57:36.392Z,99.90
2018-12-04T15:00:07.564Z,99.90
2018-12-04T15:02:36.055Z,99.90
2018-12-04T15:05:05.232Z,99.90
2018-12-04T15:07:33.424Z,99.90
2018-12-04T15:10:01.656Z,99.90
2018-12-04T15:12:30.097Z,99.90
2018-12-04T15:14:58.244Z,99.90
2018-12-04T15:17:26.440Z,99.90
2018-12-04T15:19:54.667Z,99.90
2018-12-04T15:22:22.893Z,99.90
2018-12-04T15:24:51.090Z,99.90
2018-12-04T15:27:19.390Z,99.90
2018-12-04T15:29:47.611Z,99.90
2018-12-04T15:32:15.915Z,99.90
2018-12-04T15:34:44.047Z,99.90
2018-12-04T15:37:12.212Z,99.90
2018-12-04T15:39:40.490Z,99.90
2018-12-04T15:42:08.806Z,99.90
2018-12-04T15:44:37.043Z,99.90
2018-12-04T15:47:05.203Z,99.90
2018-12-04T15:49:33.403Z,99.90
2018-12-04T15:52:01.893Z,99.90
2018-12-04T15:54:30.048Z,99.90
2018-12-04T15:56:58.336Z,99.90
2018-12-04T15:59:26.465Z,99.90
2018-12-04T16:01:54.699Z,99.90
2018-12-04T16:04:22.844Z,99.90
2018-12-04T16:06:51.021Z,99.90
2018-12-04T16:09:19.165Z,99.90
2018-12-04T16:11:47.501Z,99.90
2018-12-04T16:14:15.639Z,99.90
2018-12-04T16:16:43.817Z,99.90
2018-12-04T16:19:11.953Z,99.90
2018-12-04T16:21:40.397Z,99.90
2018-12-04T16:24:08.566Z,99.90
2018-12-04T16:26:36.834Z,99.90
2018-12-04T16:29:04.988Z,99.90
2018-12-04T16:31:33.288Z,99.90
2018-12-04T16:34:01.447Z,99.90
2018-12-04T16:36:29.669Z,99.90
2018-12-04T16:38:57.834Z,99.90
2018-12-04T16:41:26.084Z,99.90
2018-12-04T16:43:54.268Z,99.90
2018-12-04T16:46:22.412Z,99.90
2018-12-04T16:48:50.853Z,99.90
2018-12-04T16:51:19.192Z,99.90
2018-12-04T16:53:47.352Z,99.90
2018-12-04T16:56:15.488Z,99.90
2018-12-04T16:58:43.652Z,99.90
2018-12-04T17:01:11.960Z,99.90
2018-12-04T17:03:40.120Z,99.90
2018-12-04T17:06:08.262Z,99.90
2018-12-04T17:08:36.424Z,99.90
2018-12-04T17:11:04.851Z,99.90
2018-12-04T17:13:33.012Z,99.90
2018-12-04T17:16:01.162Z,99.90
2018-12-04T17:18:29.355Z,99.90
2018-12-04T17:20:57.585Z,99.90
2018-12-04T17:23:25.750Z,99.90
2018-12-04T17:25:53.899Z,99.90
2018-12-04T17:28:22.073Z,99.90
2018-12-04T17:30:50.216Z,99.90
2018-12-04T17:33:18.452Z,99.90
2018-12-04T17:35:46.588Z,99.90
2018-12-04T17:38:14.767Z,99.90
2018-12-04T17:40:42.915Z,99.90
2018-12-04T17:43:11.079Z,99.90
2018-12-04T17:45:39.273Z,99.90
2018-12-04T17:48:07.424Z,99.90
2018-12-04T17:50:35.677Z,99.90
2018-12-04T17:53:03.839Z,99.90
2018-12-04T17:55:31.973Z,99.90
2018-12-04T17:58:00.136Z,99.90
2018-12-04T18:00:28.322Z,99.90
2018-12-04T18:02:56.503Z,99.90
2018-12-04T18:05:24.643Z,99.90
2018-12-04T18:07:52.809Z,99.90
2018-12-04T18:10:21.072Z,99.90
2018-12-04T18:12:49.248Z,99.90
2018-12-04T18:15:17.455Z,99.90
2018-12-04T18:17:45.602Z,99.90
2018-12-04T18:20:13.883Z,99.90
2018-12-04T18:22:42.020Z,99.90
2018-12-04T18:25:10.187Z,99.90
2018-12-04T18:27:38.348Z,99.90
2018-12-04T18:30:07.324Z,99.90
2018-12-04T18:32:35.464Z,99.90
2018-12-04T18:35:04.369Z,99.90
2018-12-04T18:37:32.520Z,99.90
2018-12-04T18:40:00.820Z,99.90
2018-12-04T18:42:29.070Z,99.90
2018-12-04T18:44:57.284Z,99.90
2018-12-04T18:47:25.425Z,99.90
2018-12-04T18:49:53.929Z,99.90
2018-12-04T18:52:22.068Z,99.90
2018-12-04T18:54:50.238Z,99.90
2018-12-04T18:57:18.377Z,99.90
2018-12-04T18:59:46.629Z,99.90
2018-12-04T19:02:14.759Z,99.90
2018-12-04T19:04:42.923Z,99.90
2018-12-04T19:07:11.348Z,99.90
2018-12-04T19:09:39.741Z,99.90
2018-12-04T19:12:08.005Z,99.90
2018-12-04T19:14:36.164Z,99.90
2018-12-04T19:17:04.407Z,99.90
2018-12-04T19:19:34.245Z,99.90
2018-12-04T19:22:02.512Z,99.90
2018-12-04T19:24:30.864Z,99.90
2018-12-04T19:26:59.030Z,99.90
2018-12-04T19:29:27.384Z,99.90
2018-12-04T19:31:55.521Z,99.90
2018-12-04T19:34:23.907Z,99.90
2018-12-04T19:36:52.252Z,99.90
2018-12-04T19:39:20.471Z,99.90
2018-12-04T19:41:48.615Z,99.90
2018-12-04T19:44:16.777Z,99.90
2018-12-04T19:46:44.974Z,99.90
2018-12-04T19:49:13.227Z,99.90
2018-12-04T19:51:41.461Z,99.90
2018-12-04T19:54:09.615Z,99.90
2018-12-04T19:56:37.840Z,99.90
2018-12-04T19:59:06.090Z,99.90
2018-12-04T20:01:34.260Z,99.90
2018-12-04T20:04:02.485Z,99.90
2018-12-04T20:06:30.656Z,99.90
2018-12-04T20:08:59.036Z,99.90
2018-12-04T20:11:27.303Z,99.90
2018-12-04T20:13:55.464Z,99.90
2018-12-04T20:16:23.636Z,99.90
2018-12-04T20:18:51.836Z,99.90
2018-12-04T20:21:20.547Z,99.90
2018-12-04T20:23:48.713Z,99.90
2018-12-04T20:26:16.896Z,99.90
2018-12-04T20:28:45.177Z,99.90
2018-12-04T20:31:13.346Z,99.90
2018-12-04T20:33:41.499Z,99.90
2018-12-04T20:36:10.128Z,99.90
2018-12-04T20:38:38.665Z,99.90
2018-12-04T20:41:07.194Z,99.90
2018-12-04T20:43:35.333Z,99.90
2018-12-04T20:46:06.117Z,99.90
2018-12-04T20:48:34.117Z,99.90
2018-12-04T20:51:02.655Z,99.90
2018-12-04T20:53:31.010Z,99.90
2018-12-04T20:55:59.360Z,99.90
2018-12-04T20:58:27.674Z,99.90
2018-12-04T21:00:55.836Z,99.90
2018-12-04T21:03:24.061Z,99.90
2018-12-04T21:05:52.225Z,99.90
2018-12-04T21:08:20.865Z,99.90
2018-12-04T21:10:49.027Z,99.90
2018-12-04T21:13:17.192Z,99.90
2018-12-04T21:15:45.362Z,99.90
2018-12-04T21:18:13.737Z,99.90
2018-12-04T21:20:42.590Z,99.90
2018-12-04T21:23:10.816Z,99.90
2018-12-04T21:25:39.347Z,99.90
2018-12-04T21:28:14.782Z,99.90
2018-12-04T21:30:48.843Z,99.90
2018-12-04T21:33:23.394Z,99.90
2018-12-04T21:35:57.133Z,99.90
2018-12-04T21:38:32.115Z,99.90
2018-12-04T21:41:06.848Z,99.90
2018-12-04T21:46:47.136Z,99.90
2018-12-04T21:49:15.279Z,99.90
2018-12-04T21:51:43.456Z,99.90
2018-12-04T21:54:11.618Z,99.90
2018-12-04T21:56:39.780Z,99.90
2018-12-04T21:59:07.965Z,99.90
2018-12-04T22:01:36.136Z,99.90
2018-12-04T22:04:04.651Z,99.90
2018-12-04T22:06:32.860Z,99.90
2018-12-04T22:09:01.003Z,99.90
2018-12-04T22:11:29.175Z,99.90
2018-12-04T22:13:57.571Z,99.90
2018-12-04T22:16:25.724Z,99.90
2018-12-04T22:18:53.943Z,99.90
2018-12-04T22:21:22.128Z,99.90
2018-12-04T22:23:50.276Z,99.90
2018-12-04T22:26:18.491Z,99.90
2018-12-04T22:28:46.677Z,99.90
2018-12-04T22:31:14.855Z,99.90
2018-12-04T22:33:42.999Z,99.90
2018-12-04T22:36:11.188Z,99.90
2018-12-04T22:38:39.395Z,99.90
2018-12-04T22:41:07.585Z,99.90
2018-12-04T22:43:35.862Z,99.90
2018-12-04T22:46:04.155Z,99.90
2018-12-04T22:48:32.474Z,99.90
2018-12-04T22:51:00.621Z,99.90
2018-12-04T22:53:28.788Z,99.90
2018-12-04T22:55:56.936Z,99.90
2018-12-04T22:58:25.729Z,99.90
2018-12-04T23:00:54.019Z,99.90
2018-12-04T23:03:22.189Z,99.90
2018-12-04T23:05:50.367Z,99.90
2018-12-04T23:08:18.670Z,99.90
2018-12-04T23:10:46.824Z,99.90
2018-12-04T23:13:15.078Z,99.90
2018-12-04T23:15:43.447Z,99.90
2018-12-04T23:18:11.675Z,99.90
2018-12-04T23:20:39.813Z,99.90
2018-12-04T23:23:08.091Z,99.90
2018-12-04T23:25:36.255Z,99.90
2018-12-04T23:28:04.532Z,99.90
2018-12-04T23:30:32.703Z,99.90
2018-12-04T23:33:00.873Z,99.90
2018-12-04T23:35:29.019Z,99.90
2018-12-04T23:37:57.260Z,99.90
2018-12-04T23:40:25.407Z,99.90
2018-12-04T23:42:53.660Z,99.90
2018-12-04T23:45:21.812Z,99.90
2018-12-04T23:47:51.876Z,99.90
2018-12-04T23:50:20.033Z,99.90
2018-12-04T23:52:48.267Z,99.90
2018-12-04T23:55:16.429Z,99.90
2018-12-04T23:57:44.807Z,99.90
